Latest Weather Observations for Viewbank

IDV60801

Issued at 9:35 am EDT Wednesday 26 November 2014 (issued every 30 minutes, with the page automatically refreshed every 10 minutes)

About weather observations | Map of weather stations | Latest weather observations for VIC | Other Formats
Station Details ID: 086068 Name: VIEWBANK Lat: -37.74 Lon: 145.10 Height: 66.1 m
Data from the previous 72 hours. | See also: Recent months at Viewbank
Date/Time
EDT
Temp
°C
App
Temp
°C
Dew
Point
Rel
Hum
%
Delta-T
°C
Wind Press
QNH
hPa
Press
MSL
hPa
Rain
since 9 am
mm
Dir
 
Spd
km/h
Gust
km/h
Spd
kts
Gust
kts
26/09:30am 14.7 12.4 7.5 62 3.6 WSW 9 17 5 9 1021.9 1021.8 0.0
26/09:00am 14.4 12.6 7.9 65 3.2 W 7 13 4 7 1021.9 1021.8 0.0
26/08:30am 13.2 11.6 7.9 70 2.6 W 6 9 3 5 1021.7 1021.6 0.0
26/08:00am 12.3 10.1 8.0 75 2.1 W 9 15 5 8 1021.6 1021.5 0.0
26/07:30am 10.7 10.6 9.3 91 0.7 CALM 0 0 0 0 1021.4 1021.3 0.0
26/07:00am 10.0 9.2 8.3 89 0.8 NE 2 6 1 3 1021.1 1021.0 0.0
26/06:30am 9.7 9.2 8.0 89 0.8 CALM 0 0 0 0 1021.0 1020.9 0.0
26/06:00am 9.5 8.9 7.6 88 0.9 CALM 0 0 0 0 1020.7 1020.6 0.0
26/05:30am 9.4 8.4 7.5 88 0.9 N 2 6 1 3 1020.5 1020.4 0.0
26/05:00am 9.4 7.6 7.2 86 1.0 NNW 6 7 3 4 1020.3 1020.2 0.0
26/04:30am 10.8 8.4 6.9 77 1.9 NW 9 13 5 7 1020.3 1020.2 0.0
26/04:00am 10.8 8.9 6.7 76 1.9 WNW 6 9 3 5 1020.4 1020.3 0.0
26/03:30am 10.8 8.9 6.6 75 2.0 WNW 6 7 3 4 1020.3 1020.2 0.0
26/03:00am 11.3 9.1 6.4 72 2.3 W 7 11 4 6 1020.3 1020.2 0.0
26/02:30am 11.9 9.0 6.4 69 2.6 W 11 15 6 8 1020.4 1020.3 0.0
26/02:00am 12.2 9.6 6.0 66 2.9 W 9 13 5 7 1020.7 1020.6 0.0
26/01:30am 13.0 10.0 5.9 62 3.4 WSW 11 19 6 10 1020.7 1020.6 0.0
26/01:00am 13.7 10.7 6.1 60 3.6 W 11 15 6 8 1021.1 1021.0 0.0
26/12:30am 13.9 11.0 6.5 61 3.6 WSW 11 19 6 10 1021.3 1021.2 0.0
26/12:00am 14.1 11.2 6.5 60 3.7 WSW 11 19 6 10 1021.6 1021.5 0.0
 
Date/Time
EDT
Temp
°C
App
Temp
°C
Dew
Point
Rel
Hum
%
Delta-T
°C
Wind Press
QNH
hPa
Press
MSL
hPa
Rain
since 9 am
mm
Dir
 
Spd
km/h
Gust
km/h
Spd
kts
Gust
kts
25/11:30pm 14.7 12.4 7.5 62 3.6 SW 9 15 5 8 1021.7 1021.6 0.0
25/11:00pm 15.0 12.0 7.5 61 3.7 WSW 13 22 7 12 1021.8 1021.7 0.0
25/10:30pm 14.3 13.8 9.5 73 2.5 E 2 7 1 4 1021.8 1021.7 0.0
25/10:00pm 14.3 12.8 9.1 71 2.6 S 7 11 4 6 1021.6 1021.5 0.0
25/09:30pm 14.0 12.1 9.0 72 2.5 S 9 17 5 9 1021.3 1021.2 0.0
25/09:00pm 14.3 11.6 9.1 71 2.6 S 13 20 7 11 1021.0 1020.9 0.0
25/08:30pm 14.7 11.7 9.3 70 2.8 S 15 24 8 13 1020.6 1020.5 0.0
25/08:00pm 15.3 12.2 9.0 66 3.2 S 15 22 8 12 1020.3 1020.2 0.0
25/07:30pm 16.3 13.3 9.3 63 3.6 S 15 24 8 13 1019.9 1019.8 0.0
25/07:00pm 17.5 14.0 8.6 56 4.6 S 17 24 9 13 1019.4 1019.3 0.0
25/06:30pm 18.6 15.4 8.6 52 5.2 S 15 28 8 15 1018.8 1018.7 0.0
25/06:00pm 19.0 14.5 7.1 46 6.0 SSW 20 32 11 17 1018.4 1018.3 0.0
25/05:30pm 20.5 16.7 7.5 43 6.7 SSW 17 26 9 14 1018.3 1018.2 0.0
25/05:00pm 20.1 15.6 6.8 42 6.7 SSW 20 30 11 16 1018.4 1018.3 0.0
25/04:30pm 20.6 16.7 6.9 41 7.0 SW 17 33 9 18 1018.5 1018.4 0.0
25/04:00pm 21.2 17.1 7.8 42 7.0 SW 19 33 10 18 1018.4 1018.3 0.0
25/03:30pm 21.0 16.4 5.4 36 7.7 WSW 19 33 10 18 1018.4 1018.3 0.0
25/03:00pm 19.5 15.4 6.3 42 6.6 SW 17 30 9 16 1018.5 1018.4 0.0
25/02:30pm 20.2 15.6 5.8 39 7.2 WSW 19 33 10 18 1018.4 1018.3 0.0
25/02:00pm 20.2 15.1 5.8 39 7.1 SW 22 30 12 16 1018.5 1018.4 0.0
25/01:30pm 18.6 13.8 5.5 42 6.4 SW 20 33 11 18 1018.6 1018.5 0.0
25/01:00pm 19.2 14.8 6.7 44 6.3 SW 19 32 10 17 1018.7 1018.6 0.0
25/12:30pm 18.8 15.0 6.0 43 6.3 WSW 15 24 8 13 1018.7 1018.6 0.0
25/12:00pm 17.5 13.4 6.1 47 5.6 WSW 17 32 9 17 1019.0 1018.9 0.0
25/11:30am 16.9 12.3 6.4 50 5.2 W 20 32 11 17 1019.0 1018.9 0.0
25/11:00am 17.9 14.5 9.0 56 4.6 WSW 17 28 9 15 1018.9 1018.8 0.0
25/10:30am 15.8 13.0 8.5 62 3.7 W 13 26 7 14 1019.2 1019.1 0.0
25/10:00am 16.0 11.9 8.7 62 3.7 SW 20 28 11 15 1019.0 1018.9 0.0
25/09:30am 14.7 10.5 8.2 65 3.3 W 20 35 11 19 1019.0 1018.9 0.0
25/09:00am 14.7 10.8 8.6 67 3.1 W 19 30 10 16 1018.6 1018.5 9.4
25/08:30am 13.7 10.9 8.7 72 2.5 W 13 24 7 13 1018.2 1018.1 9.4
25/08:00am 13.3 10.0 9.7 79 1.8 W 17 24 9 13 1017.7 1017.6 9.4
25/07:30am 11.9 9.1 8.6 80 1.6 W 13 20 7 11 1017.4 1017.3 9.4
25/07:00am 10.2 8.4 7.8 85 1.2 WNW 7 13 4 7 1016.9 1016.8 9.4
25/06:30am 10.0 7.8 7.8 86 1.1 W 9 15 5 8 1016.4 1016.3 9.4
25/06:00am 9.8 7.5 7.4 85 1.1 WNW 9 17 5 9 1016.1 1016.0 9.4
25/05:30am 9.9 7.6 7.5 85 1.1 WNW 9 17 5 9 1015.7 1015.5 9.4
25/05:00am 9.7 7.4 7.5 86 1.0 WNW 9 13 5 7 1015.3 1015.1 9.4
25/04:30am 9.9 7.9 7.3 84 1.2 WNW 7 13 4 7 1015.1 1014.9 9.4
25/04:00am 10.0 7.7 7.4 84 1.2 WNW 9 15 5 8 1014.9 1014.7 9.4
25/03:30am 10.1 7.9 7.7 85 1.2 W 9 17 5 9 1015.1 1014.9 9.4
25/03:00am 10.2 7.7 8.0 86 1.1 W 11 17 6 9 1014.9 1014.7 9.4
25/02:30am 10.5 8.4 8.1 85 1.2 W 9 15 5 8 1015.0 1014.8 9.4
25/02:00am 10.7 8.2 8.1 84 1.3 W 11 17 6 9 1014.7 1014.5 9.4
25/01:30am 10.7 8.6 8.3 85 1.2 WNW 9 13 5 7 1014.5 1014.3 9.4
25/01:00am 11.0 8.5 8.0 82 1.5 W 11 15 6 8 1014.7 1014.5 9.4
25/12:30am 11.3 8.4 8.3 82 1.5 W 13 19 7 10 1014.5 1014.3 9.4
25/12:00am 11.6 9.5 9.7 88 1.0 W 11 15 6 8 1014.3 1014.1 9.4
 
Date/Time
EDT
Temp
°C
App
Temp
°C
Dew
Point
Rel
Hum
%
Delta-T
°C
Wind Press
QNH
hPa
Press
MSL
hPa
Rain
since 9 am
mm
Dir
 
Spd
km/h
Gust
km/h
Spd
kts
Gust
kts
24/11:30pm 12.1 9.9 10.8 92 0.7 W 13 20 7 11 1014.0 1013.8 9.4
24/11:00pm 12.2 10.7 11.9 98 0.2 W 11 17 6 9 1013.9 1013.7 9.4
24/10:30pm 12.4 11.3 11.9 97 0.3 W 9 15 5 8 1013.8 1013.6 9.4
24/10:00pm 12.8 11.5 12.5 98 0.2 W 11 19 6 10 1013.6 1013.4 9.4
24/09:30pm 13.2 13.8 13.2 100 0.0 W 2 7 1 4 1013.3 1013.1 9.4
24/09:00pm 12.9 11.3 12.9 100 0.0 SSW 13 22 7 12 1012.8 1012.6 9.2
24/08:30pm 13.5 11.7 13.3 99 0.1 WSW 15 24 8 13 1012.0 1011.9 9.2
24/08:00pm 13.6 12.7 13.6 100 0.0 WSW 11 17 6 9 1011.5 1011.4 9.2
24/07:30pm 14.1 11.6 14.1 100 0.0 WSW 20 33 11 18 1010.9 1010.8 9.0
24/07:00pm 14.9 11.1 14.7 99 0.1 S 28 37 15 20 1009.8 1009.7 8.6
24/06:56pm 15.2 10.6 14.7 97 0.3 S 32 37 17 20 1009.6 1009.5 8.0
24/06:30pm 16.9 16.5 15.1 89 1.0 SSW 11 19 6 10 1008.9 1008.8 7.4
24/06:00pm 17.0 16.8 16.8 99 0.1 SW 13 17 7 9 1008.1 1008.0 7.4
24/05:30pm 16.2 16.2 16.2 100 0.0 SW 11 22 6 12 1007.4 1007.3 7.4
24/05:00pm 16.2 15.0 16.2 100 0.0 SW 17 30 9 16 1006.9 1006.8 7.4
24/04:30pm 17.5 18.0 17.5 100 0.0 WSW 11 19 6 10 1006.5 1006.4 7.2
24/04:00pm 17.4 17.9 17.4 100 0.0 SSW 11 17 6 9 1006.2 1006.1 6.4
24/03:30pm 17.8 18.1 17.8 100 0.0 SW 13 26 7 14 1006.9 1006.8 5.4
24/03:00pm 18.9 18.2 18.7 99 0.1 SW 20 35 11 19 1006.0 1005.9 3.8
24/02:30pm 18.9 21.3 18.9 100 0.0 SSW 4 7 2 4 1005.3 1005.2 3.8
24/02:00pm 18.7 20.5 18.7 100 0.0 NE 7 13 4 7 1005.6 1005.5 3.2
24/01:30pm 18.6 19.2 18.6 100 0.0 E 13 19 7 10 1006.1 1006.0 3.2
24/01:00pm 18.2 19.4 18.2 100 0.0 ENE 9 15 5 8 1007.3 1007.2 3.0
24/12:30pm 17.2 18.0 17.2 100 0.0 S 9 13 5 7 1008.3 1008.2 2.4
24/12:00pm 17.2 18.0 17.2 100 0.0 SSW 9 13 5 7 1009.3 1009.2 1.8
24/11:30am 17.2 19.2 17.0 99 0.1 ENE 2 11 1 6 1009.1 1009.0 0.8
24/11:00am 17.2 18.5 17.0 99 0.1 SSW 6 9 3 5 1009.4 1009.3 0.8
24/10:30am 17.1 19.5 16.9 99 0.1 CALM 0 0 0 0 1009.5 1009.4 0.8
24/10:00am 16.9 19.0 16.3 96 0.4 CALM 0 2 0 1 1010.0 1009.9 0.6
24/09:30am 16.3 16.7 15.2 93 0.6 SW 7 13 4 7 1009.4 1009.3 0.6
24/09:00am 18.2 16.5 13.5 74 2.7 SW 15 19 8 10 1009.3 1009.2 0.2
24/08:37am 15.3 11.1 14.7 96 0.3 WSW 30 48 16 26 1009.2 1009.1 0.2
24/08:30am 15.5 16.5 14.2 92 0.7 NE 2 6 1 3 1007.5 1007.4 0.2
24/08:00am 14.9 14.6 13.4 91 0.8 NNE 7 11 4 6 1007.6 1007.5 0.2
24/07:30am 14.9 14.3 12.4 85 1.4 NE 7 13 4 7 1007.7 1007.6 0.0
24/07:00am 14.5 14.1 13.0 91 0.8 NE 7 13 4 7 1008.2 1008.1 0.0
24/06:30am 14.2 13.8 12.9 92 0.7 NE 7 15 4 8 1008.5 1008.4 0.0
24/06:00am 13.4 12.7 12.1 92 0.7 WSW 7 9 4 5 1008.9 1008.8 0.0
24/05:30am 13.4 13.9 11.5 88 1.0 CALM 0 4 0 2 1008.4 1008.3 0.0
24/05:00am 13.7 13.8 11.4 86 1.2 NNE 2 6 1 3 1008.4 1008.3 0.0
24/04:30am 13.8 14.2 11.3 85 1.3 CALM 0 6 0 3 1008.5 1008.4 0.0
24/04:00am 13.9 13.8 10.9 82 1.6 NNE 2 7 1 4 1008.9 1008.8 0.0
24/03:30am 14.3 14.7 11.1 81 1.7 CALM 0 0 0 0 1009.1 1009.0 0.0
24/03:00am 14.5 14.7 10.5 77 2.1 CALM 0 0 0 0 1009.8 1009.7 0.0
24/02:30am 14.8 15.0 10.4 75 2.3 CALM 0 0 0 0 1010.3 1010.2 0.0
24/02:00am 15.1 15.2 10.1 72 2.6 CALM 0 0 0 0 1010.6 1010.5 0.0
24/01:30am 15.3 14.6 10.1 71 2.7 WSW 4 7 2 4 1011.0 1010.9 0.0
24/01:00am 15.9 16.0 10.2 69 3.0 CALM 0 0 0 0 1011.9 1011.8 0.0
24/12:30am 16.5 16.2 10.1 66 3.4 WSW 2 7 1 4 1012.8 1012.6 0.0
24/12:00am 16.6 15.3 10.0 65 3.5 WSW 7 9 4 5 1012.8 1012.6 0.0
 
Date/Time
EDT
Temp
°C
App
Temp
°C
Dew
Point
Rel
Hum
%
Delta-T
°C
Wind Press
QNH
hPa
Press
MSL
hPa
Rain
since 9 am
mm
Dir
 
Spd
km/h
Gust
km/h
Spd
kts
Gust
kts
23/11:30pm 17.0 15.6 9.7 62 3.8 SW 7 13 4 7 1012.8 1012.6 0.0
23/11:00pm 17.5 16.1 9.7 60 4.1 WSW 7 11 4 6 1013.4 1013.2 0.0
23/10:30pm 17.9 16.7 10.3 61 4.1 SW 7 11 4 6 1013.8 1013.6 0.0
23/10:00pm 18.1 16.8 10.0 59 4.3 SW 7 11 4 6 1013.4 1013.2 0.0
23/09:30pm 18.1 17.0 10.0 59 4.3 S 6 9 3 5 1012.9 1012.7 0.0
23/09:00pm 18.4 17.1 10.0 58 4.5 S 7 13 4 7 1012.8 1012.6 0.0
23/08:30pm 18.9 17.7 10.2 57 4.7 SSW 7 11 4 6 1013.2 1013.0 0.0
23/08:00pm 19.2 17.6 10.2 56 4.8 SSE 9 17 5 9 1012.7 1012.5 0.0
23/07:30pm 20.0 18.5 10.7 55 5.1 S 9 15 5 8 1012.8 1012.6 0.0
23/07:00pm 20.8 18.7 11.2 54 5.3 SE 13 24 7 13 1012.6 1012.4 0.0
23/06:30pm 22.1 20.9 11.5 51 5.9 SSE 9 13 5 7 1012.3 1012.1 0.0
23/06:00pm 22.8 20.7 11.2 48 6.5 S 13 22 7 12 1011.7 1011.6 0.0
23/05:30pm 23.4 21.4 11.5 47 6.7 S 13 20 7 11 1011.6 1011.5 0.0
23/05:00pm 24.9 22.1 12.5 46 7.2 S 19 22 10 12 1011.1 1011.0 0.0
23/04:30pm 25.0 21.5 12.2 44 7.3 SSW 22 33 12 18 1010.8 1010.7 0.0
23/04:00pm 23.9 21.4 12.2 48 6.7 S 17 28 9 15 1010.4 1010.3 0.0
23/03:30pm 25.3 22.3 12.5 45 7.4 SSW 20 33 11 18 1010.1 1010.0 0.0
23/03:00pm 26.1 23.7 12.5 42 7.9 S 17 26 9 14 1009.9 1009.8 0.0
23/02:30pm 25.8 23.5 13.0 45 7.5 S 17 30 9 16 1009.9 1009.8 0.0
23/02:00pm 25.6 23.4 14.4 50 6.7 SW 19 28 10 15 1009.9 1009.8 0.0
23/01:30pm 25.7 24.2 15.4 53 6.3 SW 17 26 9 14 1010.2 1010.1 0.0
23/01:00pm 25.8 24.9 14.9 51 6.6 SSW 13 24 7 13 1010.4 1010.3 0.0
23/12:30pm 24.3 23.1 14.1 53 6.0 SW 13 20 7 11 1010.7 1010.6 0.0
23/12:00pm 24.3 24.1 14.7 55 5.7 SW 9 17 5 9 1011.1 1011.0 0.0
23/11:30am 23.2 23.2 14.2 57 5.3 SSW 7 11 4 6 1011.4 1011.3 0.0
23/11:00am 22.5 22.4 13.8 58 5.1 S 7 13 4 7 1011.7 1011.6 0.0
23/10:30am 21.3 21.0 12.7 58 4.9 E 6 11 3 6 1012.1 1012.0 0.0
23/10:00am 20.9 20.8 13.8 64 4.1 S 7 11 4 6 1012.5 1012.3 0.0

Other Formats:

Comma delimited format used in spreadsheet applications
http://www.bom.gov.au/fwo/IDV60801/IDV60801.95874.axf

JavaScript Object Notation format (JSON) in row-major order
http://www.bom.gov.au/fwo/IDV60801/IDV60801.95874.json